OAL210 LGIR-LGTS
Flight info
| Callsign | OAL210 |
|---|---|
| Flight time | 1h 5m |
| Altitude | 32000 |
| Route | EPALO M749 DIRMI UM749 SIGFO DCT BAMOS UL617 LEKPO |
| Aircraft | B738/M-SDE2E3FGHIRWXY/LB1 |
Departure
| Time | 2026-04-27 15:13 |
|---|---|
| Airport | Heraklion International Nikos Kazantzakis Airport (LGIR) |
Arrival
| Time | 2026-04-27 16:19 |
|---|---|
| Airport | Thessaloniki Macedonia International Airport (LGTS) |
| Time | Latitude | Longitude | Altitude | Speed | Heading |
|---|---|---|---|---|---|
| 2026-04-27 15:08 | 35.33783 | 25.17321 | 90 ft | 0 kts | 110° |
| 2026-04-27 15:10 | 35.33782 | 25.17325 | 90 ft | 1 kts | 108° |
| 2026-04-27 15:10 | 35.33781 | 25.17335 | 90 ft | 1 kts | 93° |
| 2026-04-27 15:10 | 35.33789 | 25.17355 | 90 ft | 5 kts | 50° |
| 2026-04-27 15:10 | 35.33845 | 25.17373 | 90 ft | 12 kts | 5° |
| 2026-04-27 15:11 | 35.33914 | 25.17429 | 92 ft | 15 kts | 86° |
| 2026-04-27 15:11 | 35.33906 | 25.17576 | 90 ft | 19 kts | 94° |
| 2026-04-27 15:11 | 35.33894 | 25.17756 | 91 ft | 23 kts | 95° |
| 2026-04-27 15:11 | 35.33879 | 25.17967 | 94 ft | 27 kts | 95° |
| 2026-04-27 15:12 | 35.33863 | 25.18203 | 92 ft | 29 kts | 95° |
| 2026-04-27 15:12 | 35.33844 | 25.18467 | 91 ft | 33 kts | 95° |
| 2026-04-27 15:12 | 35.33825 | 25.18758 | 91 ft | 35 kts | 95° |
| 2026-04-27 15:12 | 35.33890 | 25.18956 | 89 ft | 23 kts | 324° |
| 2026-04-27 15:13 | 35.33927 | 25.18734 | 89 ft | 61 kts | 274° |
| 2026-04-27 15:13 | 35.33991 | 25.17832 | 92 ft | 148 kts | 275° |
| 2026-04-27 15:13 | 35.34088 | 25.16311 | 404 ft | 197 kts | 274° |
| 2026-04-27 15:13 | 35.34131 | 25.14564 | 772 ft | 214 kts | 274° |
| 2026-04-27 15:14 | 35.34585 | 25.12919 | 1643 ft | 204 kts | 313° |
| 2026-04-27 15:14 | 35.35765 | 25.12268 | 2824 ft | 182 kts | 356° |
| 2026-04-27 15:14 | 35.36988 | 25.12209 | 3930 ft | 173 kts | 355° |
| 2026-04-27 15:14 | 35.38268 | 25.12082 | 4433 ft | 199 kts | 353° |
| 2026-04-27 15:15 | 35.39739 | 25.11860 | 4634 ft | 226 kts | 350° |
| 2026-04-27 15:15 | 35.41356 | 25.11533 | 5031 ft | 247 kts | 348° |
| 2026-04-27 15:15 | 35.43106 | 25.11101 | 5562 ft | 263 kts | 346° |
| 2026-04-27 15:15 | 35.44900 | 25.10594 | 6509 ft | 265 kts | 345° |
| 2026-04-27 15:16 | 35.46602 | 25.10066 | 7360 ft | 268 kts | 344° |
| 2026-04-27 15:16 | 35.48418 | 25.09468 | 8201 ft | 273 kts | 343° |
| 2026-04-27 15:16 | 35.50260 | 25.08813 | 9017 ft | 278 kts | 340° |
| 2026-04-27 15:16 | 35.52061 | 25.07954 | 9828 ft | 284 kts | 336° |
| 2026-04-27 15:17 | 35.53892 | 25.06985 | 10556 ft | 292 kts | 335° |
| 2026-04-27 15:17 | 35.55840 | 25.05936 | 10775 ft | 318 kts | 335° |
| 2026-04-27 15:17 | 35.57941 | 25.04802 | 11069 ft | 339 kts | 335° |
| 2026-04-27 15:17 | 35.60134 | 25.03629 | 11690 ft | 348 kts | 335° |
| 2026-04-27 15:18 | 35.62363 | 25.02446 | 12494 ft | 350 kts | 336° |
| 2026-04-27 15:18 | 35.64620 | 25.01255 | 13263 ft | 355 kts | 336° |
| 2026-04-27 15:18 | 35.66905 | 25.00054 | 13969 ft | 360 kts | 336° |
| 2026-04-27 15:18 | 35.69223 | 24.98838 | 14672 ft | 363 kts | 336° |
| 2026-04-27 15:19 | 35.71559 | 24.97614 | 15431 ft | 365 kts | 336° |
| 2026-04-27 15:19 | 35.73904 | 24.96386 | 16183 ft | 367 kts | 336° |
| 2026-04-27 15:19 | 35.76266 | 24.95149 | 16872 ft | 371 kts | 335° |
| 2026-04-27 15:19 | 35.78662 | 24.93894 | 17547 ft | 375 kts | 335° |
| 2026-04-27 15:20 | 35.81074 | 24.92630 | 18275 ft | 378 kts | 335° |
| 2026-04-27 15:20 | 35.83501 | 24.91358 | 18907 ft | 380 kts | 335° |
| 2026-04-27 15:20 | 35.85947 | 24.90073 | 19526 ft | 383 kts | 335° |
| 2026-04-27 15:20 | 35.88289 | 24.88843 | 20112 ft | 385 kts | 335° |
| 2026-04-27 15:21 | 35.90764 | 24.87542 | 20709 ft | 388 kts | 335° |
| 2026-04-27 15:21 | 35.93257 | 24.86231 | 21300 ft | 391 kts | 335° |
| 2026-04-27 15:21 | 35.95770 | 24.84908 | 21879 ft | 394 kts | 334° |
| 2026-04-27 15:21 | 35.98299 | 24.83575 | 22434 ft | 397 kts | 335° |
| 2026-04-27 15:22 | 36.00860 | 24.82225 | 22922 ft | 402 kts | 334° |
| 2026-04-27 15:22 | 36.03448 | 24.80860 | 23471 ft | 405 kts | 334° |
| 2026-04-27 15:22 | 36.06046 | 24.79490 | 23977 ft | 407 kts | 334° |
| 2026-04-27 15:22 | 36.08654 | 24.78113 | 24458 ft | 408 kts | 334° |
| 2026-04-27 15:23 | 36.11271 | 24.76731 | 24937 ft | 410 kts | 334° |
| 2026-04-27 15:23 | 36.13900 | 24.75341 | 25401 ft | 412 kts | 334° |
| 2026-04-27 15:23 | 36.16544 | 24.73942 | 25849 ft | 414 kts | 334° |
| 2026-04-27 15:23 | 36.19164 | 24.72554 | 26269 ft | 416 kts | 334° |
| 2026-04-27 15:24 | 36.21833 | 24.71139 | 26717 ft | 418 kts | 334° |
| 2026-04-27 15:24 | 36.24509 | 24.69719 | 27121 ft | 420 kts | 334° |
| 2026-04-27 15:24 | 36.27213 | 24.68283 | 27409 ft | 425 kts | 334° |
| 2026-04-27 15:24 | 36.29942 | 24.66832 | 27823 ft | 427 kts | 334° |
| 2026-04-27 15:25 | 36.32670 | 24.65383 | 28382 ft | 425 kts | 334° |
| 2026-04-27 15:25 | 36.35370 | 24.63949 | 29060 ft | 420 kts | 334° |
| 2026-04-27 15:25 | 36.38043 | 24.62527 | 29698 ft | 416 kts | 334° |
| 2026-04-27 15:25 | 36.40705 | 24.61110 | 30205 ft | 415 kts | 333° |
| 2026-04-27 15:26 | 36.43358 | 24.59694 | 30611 ft | 415 kts | 333° |
| 2026-04-27 15:26 | 36.45978 | 24.58295 | 31050 ft | 413 kts | 333° |
| 2026-04-27 15:26 | 36.48622 | 24.56884 | 31516 ft | 411 kts | 333° |
| 2026-04-27 15:26 | 36.51249 | 24.55479 | 31884 ft | 412 kts | 334° |
| 2026-04-27 15:27 | 36.53896 | 24.54062 | 32068 ft | 416 kts | 334° |
| 2026-04-27 15:27 | 36.56562 | 24.52634 | 32053 ft | 416 kts | 334° |
| 2026-04-27 15:27 | 36.61852 | 24.49800 | 32070 ft | 413 kts | 334° |
| 2026-04-27 15:28 | 36.67128 | 24.46967 | 32072 ft | 414 kts | 334° |
| 2026-04-27 15:28 | 36.72414 | 24.44128 | 32069 ft | 414 kts | 334° |
| 2026-04-27 15:29 | 36.77677 | 24.41293 | 32072 ft | 415 kts | 334° |
| 2026-04-27 15:29 | 36.82978 | 24.38436 | 32072 ft | 415 kts | 334° |
| 2026-04-27 15:30 | 36.88284 | 24.35570 | 32076 ft | 415 kts | 334° |
| 2026-04-27 15:30 | 36.93600 | 24.32696 | 32073 ft | 416 kts | 334° |
| 2026-04-27 15:31 | 36.98915 | 24.29818 | 32075 ft | 416 kts | 334° |
| 2026-04-27 15:31 | 37.04145 | 24.26981 | 32076 ft | 417 kts | 334° |
| 2026-04-27 15:32 | 37.09470 | 24.24089 | 32077 ft | 417 kts | 334° |
| 2026-04-27 15:32 | 37.14759 | 24.21212 | 32083 ft | 417 kts | 334° |
| 2026-04-27 15:33 | 37.20089 | 24.18308 | 32085 ft | 417 kts | 334° |
| 2026-04-27 15:33 | 37.25410 | 24.15402 | 32094 ft | 417 kts | 335° |
| 2026-04-27 15:34 | 37.30745 | 24.12486 | 32089 ft | 418 kts | 335° |
| 2026-04-27 15:34 | 37.36085 | 24.09564 | 32089 ft | 418 kts | 335° |
| 2026-04-27 15:35 | 37.40522 | 24.07132 | 32091 ft | 419 kts | 335° |
| 2026-04-27 15:35 | 37.45865 | 24.04198 | 32090 ft | 419 kts | 334° |
| 2026-04-27 15:36 | 37.52072 | 24.00785 | 32098 ft | 419 kts | 335° |
| 2026-04-27 15:36 | 37.56397 | 23.98404 | 32100 ft | 419 kts | 334° |
| 2026-04-27 15:37 | 37.61737 | 23.95458 | 32110 ft | 418 kts | 334° |
| 2026-04-27 15:37 | 37.67076 | 23.92509 | 32101 ft | 418 kts | 334° |
| 2026-04-27 15:38 | 37.72394 | 23.89566 | 32126 ft | 417 kts | 334° |
| 2026-04-27 15:38 | 37.77706 | 23.86620 | 32132 ft | 416 kts | 334° |
| 2026-04-27 15:39 | 37.83014 | 23.83674 | 32126 ft | 416 kts | 334° |
| 2026-04-27 15:39 | 37.88345 | 23.80831 | 32123 ft | 417 kts | 340° |
| 2026-04-27 15:40 | 37.94039 | 23.79551 | 32128 ft | 419 kts | 351° |
| 2026-04-27 15:40 | 37.99859 | 23.78809 | 32098 ft | 420 kts | 352° |
| 2026-04-27 15:41 | 38.05671 | 23.78017 | 32091 ft | 421 kts | 351° |
| 2026-04-27 15:41 | 38.11494 | 23.77189 | 32085 ft | 421 kts | 351° |
| 2026-04-27 15:42 | 38.17285 | 23.76360 | 32088 ft | 420 kts | 351° |
| 2026-04-27 15:42 | 38.23099 | 23.75521 | 32104 ft | 420 kts | 351° |
| 2026-04-27 15:43 | 38.28910 | 23.74678 | 32105 ft | 421 kts | 351° |
| 2026-04-27 15:43 | 38.34739 | 23.73831 | 32121 ft | 421 kts | 351° |
| 2026-04-27 15:44 | 38.40556 | 23.72984 | 32130 ft | 420 kts | 351° |
| 2026-04-27 15:44 | 38.46331 | 23.72143 | 32136 ft | 420 kts | 351° |
| 2026-04-27 15:45 | 38.52151 | 23.71294 | 32144 ft | 420 kts | 351° |
| 2026-04-27 15:45 | 38.57961 | 23.70444 | 32140 ft | 419 kts | 351° |
| 2026-04-27 15:46 | 38.63762 | 23.69595 | 32152 ft | 419 kts | 351° |
| 2026-04-27 15:46 | 38.69525 | 23.68750 | 32147 ft | 419 kts | 351° |
| 2026-04-27 15:47 | 38.75311 | 23.67900 | 32148 ft | 418 kts | 351° |
| 2026-04-27 15:47 | 38.81096 | 23.67048 | 32152 ft | 418 kts | 351° |
| 2026-04-27 15:48 | 38.86888 | 23.66194 | 32153 ft | 418 kts | 351° |
| 2026-04-27 15:49 | 38.95531 | 23.64857 | 32142 ft | 418 kts | 347° |
| 2026-04-27 15:49 | 39.01148 | 23.63465 | 32141 ft | 417 kts | 345° |
| 2026-04-27 15:49 | 39.03961 | 23.62706 | 32040 ft | 410 kts | 345° |
| 2026-04-27 15:50 | 39.06737 | 23.61965 | 31733 ft | 403 kts | 345° |
| 2026-04-27 15:50 | 39.09473 | 23.61247 | 31332 ft | 399 kts | 345° |
| 2026-04-27 15:50 | 39.12187 | 23.60544 | 30956 ft | 396 kts | 345° |
| 2026-04-27 15:50 | 39.14875 | 23.59853 | 30564 ft | 393 kts | 345° |
| 2026-04-27 15:51 | 39.17547 | 23.59168 | 30171 ft | 390 kts | 345° |
| 2026-04-27 15:51 | 39.20203 | 23.58488 | 29717 ft | 387 kts | 345° |
| 2026-04-27 15:51 | 39.22801 | 23.57822 | 29306 ft | 383 kts | 345° |
| 2026-04-27 15:51 | 39.25397 | 23.57157 | 28877 ft | 377 kts | 345° |
| 2026-04-27 15:52 | 39.27900 | 23.56515 | 28512 ft | 369 kts | 345° |
| 2026-04-27 15:52 | 39.30378 | 23.55761 | 28094 ft | 361 kts | 339° |
| 2026-04-27 15:52 | 39.32712 | 23.54661 | 27715 ft | 354 kts | 335° |
| 2026-04-27 15:52 | 39.34990 | 23.53505 | 27326 ft | 350 kts | 335° |
| 2026-04-27 15:53 | 39.37242 | 23.52376 | 26951 ft | 345 kts | 335° |
| 2026-04-27 15:53 | 39.39489 | 23.51274 | 26605 ft | 346 kts | 336° |
| 2026-04-27 15:53 | 39.41785 | 23.50156 | 26254 ft | 360 kts | 336° |
| 2026-04-27 15:53 | 39.44143 | 23.49009 | 25807 ft | 367 kts | 336° |
| 2026-04-27 15:54 | 39.46515 | 23.47860 | 25407 ft | 361 kts | 336° |
| 2026-04-27 15:54 | 39.48853 | 23.46729 | 25015 ft | 356 kts | 336° |
| 2026-04-27 15:54 | 39.51155 | 23.45612 | 24637 ft | 350 kts | 336° |
| 2026-04-27 15:54 | 39.53421 | 23.44511 | 24266 ft | 345 kts | 336° |
| 2026-04-27 15:55 | 39.55656 | 23.43423 | 23911 ft | 341 kts | 335° |
| 2026-04-27 15:55 | 39.57122 | 23.42710 | 23645 ft | 338 kts | 336° |
| 2026-04-27 15:55 | 39.60046 | 23.41284 | 23095 ft | 332 kts | 335° |
| 2026-04-27 15:55 | 39.62202 | 23.40231 | 22717 ft | 330 kts | 335° |
| 2026-04-27 15:56 | 39.64337 | 23.39188 | 22357 ft | 327 kts | 335° |
| 2026-04-27 15:56 | 39.66483 | 23.38137 | 22016 ft | 334 kts | 335° |
| 2026-04-27 15:56 | 39.68705 | 23.37046 | 21672 ft | 347 kts | 335° |
| 2026-04-27 15:56 | 39.70970 | 23.35939 | 21267 ft | 347 kts | 335° |
| 2026-04-27 15:57 | 39.72973 | 23.34961 | 20919 ft | 341 kts | 335° |
| 2026-04-27 15:57 | 39.75189 | 23.33883 | 20412 ft | 340 kts | 335° |
| 2026-04-27 15:57 | 39.77392 | 23.32816 | 20046 ft | 335 kts | 335° |
| 2026-04-27 15:57 | 39.79560 | 23.31766 | 19680 ft | 331 kts | 335° |
| 2026-04-27 15:58 | 39.81706 | 23.30724 | 19311 ft | 326 kts | 335° |
| 2026-04-27 15:58 | 39.83822 | 23.29698 | 18963 ft | 322 kts | 336° |
| 2026-04-27 15:58 | 39.85913 | 23.28689 | 18618 ft | 319 kts | 335° |
| 2026-04-27 15:58 | 39.87959 | 23.27695 | 18263 ft | 318 kts | 335° |
| 2026-04-27 15:59 | 39.90025 | 23.26688 | 17893 ft | 317 kts | 336° |
| 2026-04-27 15:59 | 39.92117 | 23.25664 | 17509 ft | 325 kts | 336° |
| 2026-04-27 15:59 | 39.94256 | 23.24611 | 17119 ft | 330 kts | 335° |
| 2026-04-27 15:59 | 39.96393 | 23.23554 | 16743 ft | 326 kts | 336° |
| 2026-04-27 16:00 | 39.98494 | 23.22519 | 16382 ft | 320 kts | 336° |
| 2026-04-27 16:00 | 39.99895 | 23.21829 | 16148 ft | 316 kts | 336° |
| 2026-04-27 16:00 | 40.02482 | 23.20555 | 15728 ft | 309 kts | 336° |
| 2026-04-27 16:00 | 40.04483 | 23.19569 | 15399 ft | 305 kts | 336° |
| 2026-04-27 16:01 | 40.06452 | 23.18597 | 15076 ft | 300 kts | 336° |
| 2026-04-27 16:01 | 40.08401 | 23.17635 | 14762 ft | 299 kts | 336° |
| 2026-04-27 16:01 | 40.10349 | 23.16673 | 14446 ft | 300 kts | 337° |
| 2026-04-27 16:01 | 40.12323 | 23.15705 | 14137 ft | 307 kts | 338° |
| 2026-04-27 16:02 | 40.14354 | 23.14742 | 13793 ft | 312 kts | 338° |
| 2026-04-27 16:02 | 40.16390 | 23.13787 | 13411 ft | 309 kts | 338° |
| 2026-04-27 16:02 | 40.18395 | 23.12849 | 13059 ft | 303 kts | 338° |
| 2026-04-27 16:02 | 40.20362 | 23.11926 | 12736 ft | 297 kts | 338° |
| 2026-04-27 16:03 | 40.22285 | 23.11021 | 12417 ft | 291 kts | 338° |
| 2026-04-27 16:03 | 40.24099 | 23.10165 | 12135 ft | 285 kts | 338° |
| 2026-04-27 16:03 | 40.25927 | 23.09302 | 11829 ft | 280 kts | 338° |
| 2026-04-27 16:03 | 40.27747 | 23.08440 | 11525 ft | 276 kts | 338° |
| 2026-04-27 16:04 | 40.29540 | 23.07591 | 11225 ft | 274 kts | 338° |
| 2026-04-27 16:04 | 40.31338 | 23.06739 | 10938 ft | 275 kts | 338° |
| 2026-04-27 16:04 | 40.32902 | 23.05998 | 10682 ft | 281 kts | 338° |
| 2026-04-27 16:04 | 40.34573 | 23.05206 | 10500 ft | 284 kts | 338° |
| 2026-04-27 16:05 | 40.36407 | 23.04338 | 10366 ft | 275 kts | 338° |
| 2026-04-27 16:05 | 40.38176 | 23.03500 | 10243 ft | 263 kts | 338° |
| 2026-04-27 16:05 | 40.39864 | 23.02700 | 10117 ft | 253 kts | 338° |
| 2026-04-27 16:05 | 40.41507 | 23.01919 | 9853 ft | 247 kts | 338° |
| 2026-04-27 16:06 | 40.43106 | 23.01158 | 9599 ft | 242 kts | 338° |
| 2026-04-27 16:06 | 40.44682 | 23.00408 | 9348 ft | 240 kts | 338° |
| 2026-04-27 16:06 | 40.46161 | 22.99704 | 9117 ft | 243 kts | 338° |
| 2026-04-27 16:06 | 40.47745 | 22.98949 | 8885 ft | 250 kts | 338° |
| 2026-04-27 16:07 | 40.49406 | 22.98156 | 8622 ft | 257 kts | 338° |
| 2026-04-27 16:07 | 40.51086 | 22.97356 | 8336 ft | 255 kts | 338° |
| 2026-04-27 16:07 | 40.52715 | 22.96497 | 8059 ft | 250 kts | 332° |
| 2026-04-27 16:07 | 40.54244 | 22.95451 | 7802 ft | 244 kts | 329° |
| 2026-04-27 16:08 | 40.55725 | 22.94389 | 7548 ft | 240 kts | 329° |
| 2026-04-27 16:08 | 40.57179 | 22.93347 | 7319 ft | 236 kts | 329° |
| 2026-04-27 16:08 | 40.58620 | 22.92318 | 7067 ft | 235 kts | 329° |
| 2026-04-27 16:08 | 40.60067 | 22.91291 | 6827 ft | 238 kts | 330° |
| 2026-04-27 16:09 | 40.61530 | 22.90258 | 6494 ft | 247 kts | 330° |
| 2026-04-27 16:09 | 40.64583 | 22.88110 | 5863 ft | 246 kts | 330° |
| 2026-04-27 16:09 | 40.66087 | 22.87054 | 5582 ft | 242 kts | 330° |
| 2026-04-27 16:10 | 40.69025 | 22.84994 | 5053 ft | 236 kts | 331° |
| 2026-04-27 16:10 | 40.71961 | 22.82934 | 4655 ft | 241 kts | 332° |
| 2026-04-27 16:11 | 40.73423 | 22.81908 | 4537 ft | 242 kts | 332° |
| 2026-04-27 16:11 | 40.76586 | 22.81189 | 4092 ft | 233 kts | 22° |
| 2026-04-27 16:12 | 40.78539 | 22.84200 | 3848 ft | 219 kts | 79° |
| 2026-04-27 16:12 | 40.78521 | 22.86190 | 3765 ft | 219 kts | 107° |
| 2026-04-27 16:12 | 40.76353 | 22.88632 | 3552 ft | 206 kts | 158° |
| 2026-04-27 16:13 | 40.75063 | 22.89311 | 3399 ft | 193 kts | 158° |
| 2026-04-27 16:13 | 40.72637 | 22.90298 | 3152 ft | 179 kts | 165° |
| 2026-04-27 16:13 | 40.71429 | 22.90701 | 3055 ft | 180 kts | 165° |
| 2026-04-27 16:14 | 40.69051 | 22.91483 | 2811 ft | 168 kts | 166° |
| 2026-04-27 16:14 | 40.66887 | 22.92193 | 2614 ft | 159 kts | 167° |
| 2026-04-27 16:15 | 40.64677 | 22.92911 | 2256 ft | 161 kts | 166° |
| 2026-04-27 16:15 | 40.62603 | 22.93595 | 1995 ft | 150 kts | 165° |
| 2026-04-27 16:16 | 40.60740 | 22.94205 | 1623 ft | 132 kts | 164° |
| 2026-04-27 16:16 | 40.58895 | 22.94811 | 1255 ft | 139 kts | 165° |
| 2026-04-27 16:17 | 40.57070 | 22.95449 | 847 ft | 136 kts | 164° |
| 2026-04-27 16:17 | 40.55257 | 22.96093 | 538 ft | 138 kts | 168° |
| 2026-04-27 16:18 | 40.53364 | 22.96659 | 151 ft | 134 kts | 167° |
| 2026-04-27 16:18 | 40.51898 | 22.97121 | 27 ft | 56 kts | 166° |
| 2026-04-27 16:19 | 40.51573 | 22.97230 | 29 ft | 39 kts | 148° |
| 2026-04-27 16:19 | 40.51593 | 22.97394 | 28 ft | 18 kts | 354° |
| 2026-04-27 16:20 | 40.52204 | 22.97206 | 27 ft | 33 kts | 346° |
| 2026-04-27 16:20 | 40.52385 | 22.97253 | 27 ft | 29 kts | 88° |
| 2026-04-27 16:20 | 40.52319 | 22.97571 | 27 ft | 7 kts | 45° |
| 2026-04-27 16:21 | 40.52321 | 22.97575 | 27 ft | 0 kts | 45° |